Time;durP1;ratioP1;P1;durP2;ratioP2;P2;SDS_P1;SDS_P2;PMS_P1;PMS_P2;Temp;Humidity;BMP_temperature;BMP_pressure;BME280_temperature;BME280_humidity;BME280_pressure;Samples;Min_cycle;Max_cycle;Signal;HPM_P1;HPM_P2
2022/01/13 00:01:05;;;;;;;105.50;32.73;;;;;;;;;;5003850;28;20505;-82
2022/01/13 00:03:31;;;;;;;107.07;32.30;;;;;;;;;;5004263;28;20461;-81
2022/01/13 00:05:57;;;;;;;111.47;34.20;;;;;;;;;;5001737;28;21003;-82
2022/01/13 00:08:25;;;;;;;108.50;33.73;;;;;;;;;;5003311;28;20824;-82
2022/01/13 00:10:51;;;;;;;92.90;32.50;;;;;;;;;;4999907;28;20485;-81
2022/01/13 00:13:23;;;;;;;108.63;34.93;;;;;;;;;;5003066;28;20525;-82
2022/01/13 00:16:01;;;;;;;116.00;37.00;;;;;;;;;;5001242;28;20505;-82
2022/01/13 00:18:38;;;;;;;101.37;32.53;;;;;;;;;;5002656;28;20462;-82
2022/01/13 00:21:17;;;;;;;129.87;36.20;;;;;;;;;;5003287;28;20465;-82
2022/01/13 00:23:47;;;;;;;112.03;35.47;;;;;;;;;;5002768;28;20541;-80
2022/01/13 00:26:18;;;;;;;126.03;36.93;;;;;;;;;;5006306;28;20907;-82
2022/01/13 00:28:47;;;;;;;123.97;34.27;;;;;;;;;;5004092;28;21007;-82
2022/01/13 00:31:16;;;;;;;109.53;35.50;;;;;;;;;;5007213;28;20485;-82
2022/01/13 00:33:45;;;;;;;136.10;36.10;;;;;;;;;;5002838;28;20479;-79
2022/01/13 00:36:11;;;;;;;115.53;38.20;;;;;;;;;;5001359;28;20512;-82
2022/01/13 00:38:38;;;;;;;112.93;38.10;;;;;;;;;;5005222;28;20497;-82
2022/01/13 00:41:05;;;;;;;130.57;35.80;;;;;;;;;;5004691;28;20486;-82
2022/01/13 00:43:36;;;;;;;106.10;34.97;;;;;;;;;;5008488;28;21029;-82
2022/01/13 00:46:02;;;;;;;127.23;37.00;;;;;;;;;;5004801;28;20493;-82
2022/01/13 00:48:28;;;;;;;125.10;34.60;;;;;;;;;;5004744;28;20457;-82
2022/01/13 00:50:55;;;;;;;123.73;36.27;;;;;;;;;;5006084;28;20473;-82
2022/01/13 00:53:21;;;;;;;126.90;36.17;;;;;;;;;;5005029;28;20481;-82
2022/01/13 00:55:49;;;;;;;111.20;33.60;;;;;;;;;;5002624;28;20482;-82
2022/01/13 00:58:18;;;;;;;110.23;35.70;;;;;;;;;;4999411;28;20533;-82
2022/01/13 01:00:44;;;;;;;111.83;36.83;;;;;;;;;;5001619;28;20548;-82
2022/01/13 01:03:11;;;;;;;137.00;35.57;;;;;;;;;;5001619;28;20512;-82
2022/01/13 01:05:37;;;;;;;121.57;36.50;;;;;;;;;;5007549;28;20471;-82
2022/01/13 01:08:04;;;;;;;126.13;37.20;;;;;;;;;;5022546;28;20446;-81
2022/01/13 01:10:30;;;;;;;140.17;38.77;;;;;;;;;;5018345;28;20524;-82
2022/01/13 01:12:56;;;;;;;117.60;35.10;;;;;;;;;;5004839;28;21194;-82
2022/01/13 01:15:25;;;;;;;164.30;38.33;;;;;;;;;;5004556;28;20466;-81
2022/01/13 01:17:58;;;;;;;108.57;35.87;;;;;;;;;;5004849;28;21021;-82
2022/01/13 01:20:30;;;;;;;153.67;38.17;;;;;;;;;;5005679;28;20465;-82
2022/01/13 01:23:04;;;;;;;136.97;42.47;;;;;;;;;;5004314;28;20863;-82
2022/01/13 01:25:57;;;;;;;128.97;36.23;;;;;;;;;;5004486;28;20470;-82
2022/01/13 01:28:33;;;;;;;140.63;37.03;;;;;;;;;;5005998;28;20458;-82
2022/01/13 01:31:00;;;;;;;156.57;41.93;;;;;;;;;;5005053;28;20474;-82
2022/01/13 01:33:27;;;;;;;114.07;36.17;;;;;;;;;;5005548;28;20446;-83
2022/01/13 01:35:56;;;;;;;129.57;36.40;;;;;;;;;;5001739;28;20529;-82
2022/01/13 01:38:22;;;;;;;116.07;37.30;;;;;;;;;;5006009;28;20544;-82
2022/01/13 01:40:48;;;;;;;139.50;34.67;;;;;;;;;;5002773;28;20477;-82
2022/01/13 01:43:15;;;;;;;109.70;34.07;;;;;;;;;;5004604;28;20876;-82
2022/01/13 01:45:44;;;;;;;126.53;36.13;;;;;;;;;;5004438;28;20469;-82
2022/01/13 01:48:18;;;;;;;124.20;37.53;;;;;;;;;;4998314;28;20463;-82
2022/01/13 01:50:53;;;;;;;146.07;39.37;;;;;;;;;;5001933;28;20547;-82
2022/01/13 01:53:19;;;;;;;103.37;34.60;;;;;;;;;;5002751;28;20465;-82
2022/01/13 01:55:46;;;;;;;135.27;36.83;;;;;;;;;;5000225;28;20474;-82
2022/01/13 01:58:12;;;;;;;136.17;37.20;;;;;;;;;;5003302;28;21013;-82
2022/01/13 02:00:38;;;;;;;135.67;34.47;;;;;;;;;;5002299;28;20485;-82
2022/01/13 02:03:06;;;;;;;124.70;36.23;;;;;;;;;;5001489;28;20458;-82
2022/01/13 02:05:33;;;;;;;113.83;34.47;;;;;;;;;;5000387;28;20493;-80
2022/01/13 02:07:59;;;;;;;125.47;37.50;;;;;;;;;;5000960;28;20470;-79
2022/01/13 02:10:26;;;;;;;148.20;35.97;;;;;;;;;;5000824;28;21065;-82
2022/01/13 02:13:01;;;;;;;115.97;34.67;;;;;;;;;;5000449;28;20458;-82
2022/01/13 02:15:31;;;;;;;154.20;36.93;;;;;;;;;;5001856;28;20469;-82
2022/01/13 02:17:58;;;;;;;136.00;35.50;;;;;;;;;;5003065;28;20947;-83
2022/01/13 02:20:40;;;;;;;136.60;39.90;;;;;;;;;;5004077;28;21057;-82
2022/01/13 02:23:06;;;;;;;131.10;35.73;;;;;;;;;;5003015;28;20482;-82
2022/01/13 02:25:32;;;;;;;117.30;34.80;;;;;;;;;;5001578;28;20520;-80
2022/01/13 02:27:59;;;;;;;139.90;35.40;;;;;;;;;;4966761;28;1008085;-82
2022/01/13 02:30:25;;;;;;;132.80;34.13;;;;;;;;;;4998727;28;20282;-82
2022/01/13 02:32:51;;;;;;;115.03;32.43;;;;;;;;;;4996308;28;20467;-82
2022/01/13 02:35:18;;;;;;;117.13;33.63;;;;;;;;;;4997893;28;20487;-82
2022/01/13 02:37:45;;;;;;;131.90;33.67;;;;;;;;;;5002852;28;20482;-82
2022/01/13 02:40:12;;;;;;;136.67;35.93;;;;;;;;;;5002631;28;20438;-82
2022/01/13 02:42:38;;;;;;;138.53;35.20;;;;;;;;;;5005561;28;20876;-82
2022/01/13 02:45:14;;;;;;;136.07;33.90;;;;;;;;;;5003422;28;20957;-81
2022/01/13 02:48:00;;;;;;;189.97;40.50;;;;;;;;;;5004072;28;20860;-82
2022/01/13 02:50:26;;;;;;;111.83;32.20;;;;;;;;;;5000872;28;20470;-82
2022/01/13 02:52:54;;;;;;;112.47;32.50;;;;;;;;;;5003042;28;20870;-82
2022/01/13 02:55:20;;;;;;;127.80;32.37;;;;;;;;;;5003924;28;20832;-83
2022/01/13 02:57:47;;;;;;;123.10;33.63;;;;;;;;;;5005097;28;20501;-82
2022/01/13 03:00:15;;;;;;;102.70;29.07;;;;;;;;;;5000809;28;20532;-81
2022/01/13 03:02:45;;;;;;;129.97;34.17;;;;;;;;;;5001782;28;20458;-79
2022/01/13 03:05:13;;;;;;;109.73;35.80;;;;;;;;;;5002946;28;20460;-82
2022/01/13 03:07:40;;;;;;;108.03;32.47;;;;;;;;;;5003809;28;20481;-82
2022/01/13 03:10:08;;;;;;;121.10;33.30;;;;;;;;;;5003910;28;20831;-82
2022/01/13 03:12:37;;;;;;;117.80;32.67;;;;;;;;;;5003539;28;20450;-82
2022/01/13 03:15:04;;;;;;;104.27;34.77;;;;;;;;;;5002528;28;20481;-82
2022/01/13 03:17:30;;;;;;;135.47;34.23;;;;;;;;;;5003418;28;20473;-82
2022/01/13 03:19:57;;;;;;;115.43;35.43;;;;;;;;;;5001201;28;20454;-82
2022/01/13 03:22:23;;;;;;;116.90;34.40;;;;;;;;;;4999843;28;20478;-82
2022/01/13 03:24:49;;;;;;;124.30;34.73;;;;;;;;;;5001566;28;20455;-83
2022/01/13 03:27:21;;;;;;;131.00;35.27;;;;;;;;;;5000541;28;20494;-82
2022/01/13 03:29:47;;;;;;;140.93;37.10;;;;;;;;;;5002876;28;20476;-82
2022/01/13 03:32:14;;;;;;;101.53;32.20;;;;;;;;;;5003022;28;20478;-83
2022/01/13 03:34:40;;;;;;;116.00;34.60;;;;;;;;;;5001363;28;20539;-82
2022/01/13 03:37:06;;;;;;;117.87;35.17;;;;;;;;;;5003265;28;20553;-82
2022/01/13 03:39:33;;;;;;;189.07;40.07;;;;;;;;;;5001798;28;20450;-82
2022/01/13 03:42:01;;;;;;;133.40;35.27;;;;;;;;;;5001544;28;20486;-82
2022/01/13 03:44:29;;;;;;;117.40;37.87;;;;;;;;;;5003834;28;20464;-82
2022/01/13 03:46:56;;;;;;;106.30;32.83;;;;;;;;;;5002963;28;20501;-82
2022/01/13 03:49:22;;;;;;;139.10;35.93;;;;;;;;;;5000121;28;20466;-82
2022/01/13 03:52:18;;;;;;;141.60;34.80;;;;;;;;;;5002536;28;20528;-82
2022/01/13 03:55:14;;;;;;;121.27;34.27;;;;;;;;;;5002111;28;20490;-82
2022/01/13 03:58:05;;;;;;;110.83;32.13;;;;;;;;;;5022970;28;20499;-82
2022/01/13 04:00:50;;;;;;;102.17;31.37;;;;;;;;;;5022158;28;20469;-82
2022/01/13 04:03:18;;;;;;;117.10;31.70;;;;;;;;;;5022077;28;20528;-82
2022/01/13 04:06:00;;;;;;;126.30;33.23;;;;;;;;;;5023004;28;20472;-82
2022/01/13 04:08:27;;;;;;;111.83;33.40;;;;;;;;;;5022091;28;20456;-82
2022/01/13 04:11:14;;;;;;;104.90;31.77;;;;;;;;;;5022940;28;20546;-82
2022/01/13 04:13:51;;;;;;;126.23;32.70;;;;;;;;;;5021029;28;20449;-82
2022/01/13 04:16:18;;;;;;;104.67;30.57;;;;;;;;;;5021902;28;20481;-82
2022/01/13 04:18:47;;;;;;;102.90;31.13;;;;;;;;;;5021844;28;20511;-82
2022/01/13 04:21:13;;;;;;;113.47;32.87;;;;;;;;;;5022391;28;20549;-82
2022/01/13 04:23:40;;;;;;;114.67;31.00;;;;;;;;;;5023223;28;20504;-82
2022/01/13 04:26:07;;;;;;;120.40;34.87;;;;;;;;;;5021828;28;21023;-82
2022/01/13 04:28:33;;;;;;;105.20;32.60;;;;;;;;;;5021083;28;20464;-82
2022/01/13 04:31:02;;;;;;;97.37;31.60;;;;;;;;;;5020975;28;20481;-82
2022/01/13 04:33:29;;;;;;;110.87;33.07;;;;;;;;;;5023985;28;20441;-82
2022/01/13 04:35:57;;;;;;;98.23;28.23;;;;;;;;;;5022468;28;20602;-82
2022/01/13 04:38:23;;;;;;;133.60;33.53;;;;;;;;;;5018758;28;20461;-82
2022/01/13 04:40:55;;;;;;;107.10;33.10;;;;;;;;;;5021294;28;20469;-82
2022/01/13 04:43:21;;;;;;;83.53;27.70;;;;;;;;;;5020885;28;20485;-82
2022/01/13 04:45:48;;;;;;;90.77;28.40;;;;;;;;;;5021574;28;20468;-82
2022/01/13 04:48:15;;;;;;;95.77;28.27;;;;;;;;;;5024450;28;21004;-82
2022/01/13 04:50:41;;;;;;;95.10;29.93;;;;;;;;;;5025793;28;20489;-82
2022/01/13 04:53:09;;;;;;;95.83;28.33;;;;;;;;;;5026470;28;20472;-82
2022/01/13 04:55:37;;;;;;;108.93;29.50;;;;;;;;;;5026224;28;20482;-82
2022/01/13 04:58:04;;;;;;;110.93;29.37;;;;;;;;;;5025816;28;20452;-80
2022/01/13 05:00:31;;;;;;;105.77;32.23;;;;;;;;;;5022339;28;20469;-82
2022/01/13 05:02:57;;;;;;;98.20;32.40;;;;;;;;;;5025056;28;20442;-82
2022/01/13 05:05:24;;;;;;;105.57;27.63;;;;;;;;;;5023129;28;20460;-82
2022/01/13 05:07:51;;;;;;;109.17;31.67;;;;;;;;;;5025668;28;20473;-82
2022/01/13 05:10:19;;;;;;;80.07;27.60;;;;;;;;;;5023470;28;20505;-79
2022/01/13 05:12:48;;;;;;;104.70;30.27;;;;;;;;;;5005407;28;20821;-82
2022/01/13 05:15:18;;;;;;;95.63;29.30;;;;;;;;;;5005621;28;20493;-82
2022/01/13 05:18:05;;;;;;;92.67;29.70;;;;;;;;;;5006623;28;20893;-82
2022/01/13 05:20:39;;;;;;;77.70;29.80;;;;;;;;;;5005655;28;20469;-83
2022/01/13 05:23:07;;;;;;;86.67;28.70;;;;;;;;;;5007038;28;20822;-82
2022/01/13 05:25:35;;;;;;;86.17;27.77;;;;;;;;;;5004967;28;20566;-81
2022/01/13 05:28:01;;;;;;;92.13;27.83;;;;;;;;;;5005374;28;20454;-81
2022/01/13 05:30:27;;;;;;;86.90;28.63;;;;;;;;;;5003405;28;20463;-82
2022/01/13 05:32:56;;;;;;;89.93;27.13;;;;;;;;;;5005512;28;20466;-82
2022/01/13 05:35:22;;;;;;;84.20;26.73;;;;;;;;;;5004563;28;20849;-82
2022/01/13 05:37:48;;;;;;;86.00;28.90;;;;;;;;;;5006019;28;20475;-82
2022/01/13 05:40:15;;;;;;;91.33;28.17;;;;;;;;;;5004044;28;20462;-83
2022/01/13 05:42:43;;;;;;;79.03;25.23;;;;;;;;;;5004677;28;20459;-82
2022/01/13 05:45:15;;;;;;;78.37;26.20;;;;;;;;;;5004014;28;20513;-82
2022/01/13 05:47:41;;;;;;;90.90;26.60;;;;;;;;;;5004610;28;20473;-83
2022/01/13 05:50:08;;;;;;;88.40;28.80;;;;;;;;;;5004867;28;20524;-82
2022/01/13 05:52:34;;;;;;;88.83;27.50;;;;;;;;;;5004854;28;21013;-82
2022/01/13 05:55:02;;;;;;;83.47;27.27;;;;;;;;;;5005546;28;20544;-83
2022/01/13 05:57:28;;;;;;;88.90;27.50;;;;;;;;;;5023508;28;21020;-83
2022/01/13 05:59:56;;;;;;;91.37;29.80;;;;;;;;;;5021691;28;20963;-83
2022/01/13 06:02:22;;;;;;;89.13;26.00;;;;;;;;;;5023755;28;20508;-83
2022/01/13 06:04:48;;;;;;;103.47;32.30;;;;;;;;;;5023498;28;20502;-82
2022/01/13 06:07:16;;;;;;;83.37;27.17;;;;;;;;;;5023038;28;20555;-82
2022/01/13 06:09:43;;;;;;;80.87;26.87;;;;;;;;;;5024596;28;20467;-82
2022/01/13 06:12:09;;;;;;;103.63;28.20;;;;;;;;;;5005622;28;20501;-82
2022/01/13 06:14:36;;;;;;;89.07;31.70;;;;;;;;;;5005556;28;20532;-83
2022/01/13 06:17:04;;;;;;;75.03;27.87;;;;;;;;;;5004925;28;20493;-82
2022/01/13 06:19:30;;;;;;;84.67;26.90;;;;;;;;;;5003128;28;20524;-83
2022/01/13 06:21:56;;;;;;;104.57;32.00;;;;;;;;;;5002419;28;20505;-83
2022/01/13 06:24:22;;;;;;;85.87;28.77;;;;;;;;;;5001802;28;20458;-83
2022/01/13 06:26:49;;;;;;;80.43;28.40;;;;;;;;;;5003670;28;20862;-82
2022/01/13 06:29:15;;;;;;;94.97;28.77;;;;;;;;;;5003462;28;20879;-83
2022/01/13 06:31:41;;;;;;;120.77;33.67;;;;;;;;;;5003278;28;20748;-82
2022/01/13 06:34:09;;;;;;;90.07;28.10;;;;;;;;;;5004472;28;20450;-83
2022/01/13 06:36:35;;;;;;;93.60;28.70;;;;;;;;;;5003301;28;20485;-83
2022/01/13 06:39:01;;;;;;;83.00;27.37;;;;;;;;;;5005565;28;20476;-82
2022/01/13 06:41:28;;;;;;;104.13;29.70;;;;;;;;;;5003940;28;20482;-82
2022/01/13 06:43:54;;;;;;;100.00;35.43;;;;;;;;;;5002134;28;20552;-82
2022/01/13 06:46:20;;;;;;;86.10;30.43;;;;;;;;;;5003300;28;21051;-83
2022/01/13 06:48:46;;;;;;;87.57;31.63;;;;;;;;;;5003606;28;20542;-83
2022/01/13 06:51:14;;;;;;;77.40;28.50;;;;;;;;;;5002178;28;20889;-82
2022/01/13 06:53:40;;;;;;;99.13;30.17;;;;;;;;;;5002215;28;20457;-82
2022/01/13 06:56:07;;;;;;;97.87;29.80;;;;;;;;;;5001106;28;20515;-82
2022/01/13 06:58:33;;;;;;;77.03;30.83;;;;;;;;;;5003888;28;20462;-83
2022/01/13 07:01:00;;;;;;;90.53;32.27;;;;;;;;;;5004862;28;20470;-83
2022/01/13 07:03:26;;;;;;;108.20;33.57;;;;;;;;;;5000232;28;20462;-83
2022/01/13 07:05:53;;;;;;;105.20;31.40;;;;;;;;;;5002881;28;20487;-82
2022/01/13 07:08:20;;;;;;;118.23;34.60;;;;;;;;;;5004396;28;20520;-82
2022/01/13 07:10:47;;;;;;;90.30;31.23;;;;;;;;;;5003213;28;21011;-83
2022/01/13 07:13:13;;;;;;;89.90;30.00;;;;;;;;;;5004638;28;21091;-83
2022/01/13 07:15:39;;;;;;;96.97;35.17;;;;;;;;;;5000346;28;21026;-82
2022/01/13 07:18:05;;;;;;;105.20;33.70;;;;;;;;;;5001399;28;20990;-83
2022/01/13 07:20:32;;;;;;;117.10;33.40;;;;;;;;;;5005262;28;20481;-83
2022/01/13 07:22:58;;;;;;;97.70;31.60;;;;;;;;;;5004690;28;20472;-82
2022/01/13 07:25:26;;;;;;;104.67;32.63;;;;;;;;;;5004837;28;20603;-83
2022/01/13 07:27:52;;;;;;;87.63;30.63;;;;;;;;;;5001802;28;20486;-82
2022/01/13 07:30:19;;;;;;;93.97;31.70;;;;;;;;;;5001269;28;20479;-82
2022/01/13 07:32:45;;;;;;;88.03;32.47;;;;;;;;;;5002606;28;20450;-82
2022/01/13 07:35:11;;;;;;;93.73;32.37;;;;;;;;;;5003626;28;20531;-81
2022/01/13 07:37:39;;;;;;;97.40;34.83;;;;;;;;;;5002720;28;20921;-81
2022/01/13 07:40:06;;;;;;;105.43;35.30;;;;;;;;;;5005110;28;20486;-81
2022/01/13 07:42:35;;;;;;;96.70;35.10;;;;;;;;;;5003180;28;20454;-82
2022/01/13 07:45:01;;;;;;;92.23;33.07;;;;;;;;;;5003974;28;20470;-82
2022/01/13 07:47:28;;;;;;;91.73;31.60;;;;;;;;;;5020799;28;20552;-82
2022/01/13 07:49:54;;;;;;;98.17;34.53;;;;;;;;;;5023229;28;20815;-81
2022/01/13 07:52:20;;;;;;;85.00;31.07;;;;;;;;;;5004032;28;20493;-82
2022/01/13 07:54:46;;;;;;;93.07;30.70;;;;;;;;;;5004049;28;20466;-81
2022/01/13 07:57:13;;;;;;;92.97;32.20;;;;;;;;;;5003611;28;20470;-81
2022/01/13 07:59:40;;;;;;;98.67;31.40;;;;;;;;;;5002724;28;20465;-82
2022/01/13 08:02:06;;;;;;;92.27;30.93;;;;;;;;;;5001265;28;20482;-82
2022/01/13 08:04:33;;;;;;;93.83;30.20;;;;;;;;;;5003203;28;20980;-82
2022/01/13 08:07:00;;;;;;;97.07;31.50;;;;;;;;;;5003640;28;20483;-82
2022/01/13 08:09:26;;;;;;;86.03;29.10;;;;;;;;;;5003785;28;20465;-82
2022/01/13 08:11:52;;;;;;;75.53;30.07;;;;;;;;;;5001263;28;20528;-81
2022/01/13 08:14:19;;;;;;;91.30;29.50;;;;;;;;;;5004313;28;20508;-82
2022/01/13 08:16:47;;;;;;;73.20;29.70;;;;;;;;;;5005937;28;20478;-81
2022/01/13 08:21:57;;;;;;;93.77;29.93;;;;;;;;;;5008381;28;20472;-81
2022/01/13 08:24:23;;;;;;;83.13;30.30;;;;;;;;;;5007185;28;20446;-81
2022/01/13 08:26:50;;;;;;;78.00;31.43;;;;;;;;;;5006873;28;20612;-81
2022/01/13 08:29:16;;;;;;;79.43;28.83;;;;;;;;;;5007538;28;20462;-82
2022/01/13 08:31:42;;;;;;;75.97;29.87;;;;;;;;;;5008820;28;21010;-79
2022/01/13 08:34:11;;;;;;;65.70;27.37;;;;;;;;;;5008349;28;20466;-81
2022/01/13 08:36:38;;;;;;;64.27;25.30;;;;;;;;;;5008040;28;20474;-82
2022/01/13 08:39:04;;;;;;;73.50;29.80;;;;;;;;;;5008723;28;20458;-81
2022/01/13 08:41:30;;;;;;;72.50;29.50;;;;;;;;;;5007915;28;20510;-81
2022/01/13 08:43:57;;;;;;;59.03;23.33;;;;;;;;;;5009478;28;20476;-82
2022/01/13 08:46:24;;;;;;;74.20;28.03;;;;;;;;;;5009432;28;20489;-81
2022/01/13 08:48:51;;;;;;;68.07;27.40;;;;;;;;;;5008822;28;20469;-82
2022/01/13 08:51:18;;;;;;;74.13;26.40;;;;;;;;;;5008678;28;20899;-82
2022/01/13 08:53:45;;;;;;;69.13;26.97;;;;;;;;;;5008466;28;20449;-81
2022/01/13 08:56:11;;;;;;;63.60;25.70;;;;;;;;;;5008160;28;20478;-80
2022/01/13 08:58:38;;;;;;;62.60;27.90;;;;;;;;;;5008016;28;20520;-82
2022/01/13 09:01:04;;;;;;;70.03;25.20;;;;;;;;;;5007613;28;20477;-82
2022/01/13 09:03:30;;;;;;;74.37;27.60;;;;;;;;;;5010010;28;20488;-82
2022/01/13 09:05:56;;;;;;;68.50;25.60;;;;;;;;;;5009317;28;20478;-81
2022/01/13 09:08:24;;;;;;;62.20;24.77;;;;;;;;;;5008040;28;20464;-81
2022/01/13 09:10:50;;;;;;;63.30;24.80;;;;;;;;;;5007304;28;20469;-82
2022/01/13 09:13:17;;;;;;;66.10;25.40;;;;;;;;;;5009430;28;20458;-82
2022/01/13 09:15:45;;;;;;;65.90;25.57;;;;;;;;;;5002536;28;20481;-81
2022/01/13 09:18:16;;;;;;;60.50;24.47;;;;;;;;;;5008262;28;20466;-81
2022/01/13 09:20:42;;;;;;;66.00;25.23;;;;;;;;;;5007651;28;20477;-81
2022/01/13 09:23:09;;;;;;;66.47;25.10;;;;;;;;;;5008895;28;20492;-83
2022/01/13 09:25:37;;;;;;;56.23;24.03;;;;;;;;;;5007588;28;20504;-80
2022/01/13 09:28:04;;;;;;;72.30;28.77;;;;;;;;;;5007071;28;20512;-79
2022/01/13 09:30:31;;;;;;;60.40;24.77;;;;;;;;;;5006067;28;20473;-82
2022/01/13 09:32:57;;;;;;;53.73;25.37;;;;;;;;;;5003825;28;20462;-81
2022/01/13 09:35:23;;;;;;;64.50;25.57;;;;;;;;;;5006134;28;20467;-82
2022/01/13 09:37:50;;;;;;;60.53;23.47;;;;;;;;;;5003882;28;20498;-81
2022/01/13 09:40:17;;;;;;;64.53;25.10;;;;;;;;;;5006843;28;20455;-82
2022/01/13 09:42:45;;;;;;;53.40;23.60;;;;;;;;;;5005833;28;20535;-80
2022/01/13 09:45:12;;;;;;;55.67;23.17;;;;;;;;;;5006855;28;20453;-82
2022/01/13 09:47:39;;;;;;;62.03;24.80;;;;;;;;;;5008115;28;20494;-82
2022/01/13 09:50:10;;;;;;;54.70;25.90;;;;;;;;;;5007874;28;20528;-82
2022/01/13 09:52:36;;;;;;;56.43;24.13;;;;;;;;;;5007696;28;20520;-82
2022/01/13 09:55:02;;;;;;;51.07;23.00;;;;;;;;;;5007819;28;20458;-82
2022/01/13 09:57:29;;;;;;;42.50;23.67;;;;;;;;;;5008229;28;20575;-82
2022/01/13 09:59:58;;;;;;;54.03;22.53;;;;;;;;;;5006791;28;20810;-80
2022/01/13 10:02:24;;;;;;;51.70;22.80;;;;;;;;;;5006863;28;20482;-79
2022/01/13 10:04:53;;;;;;;53.97;23.70;;;;;;;;;;5006937;28;20508;-79
2022/01/13 10:07:30;;;;;;;63.30;23.47;;;;;;;;;;5008279;28;20505;-80
2022/01/13 10:09:57;;;;;;;60.13;25.70;;;;;;;;;;5008238;28;20453;-82
2022/01/13 10:12:24;;;;;;;45.03;21.10;;;;;;;;;;5006676;28;20486;-82
2022/01/13 10:17:46;;;;;;;48.37;22.60;;;;;;;;;;5005444;28;20488;-79
2022/01/13 10:20:13;;;;;;;46.80;21.53;;;;;;;;;;5005444;28;20549;-82
2022/01/13 10:22:39;;;;;;;53.93;22.80;;;;;;;;;;5006017;28;20882;-82
2022/01/13 10:25:05;;;;;;;53.30;22.53;;;;;;;;;;5004228;28;20470;-82
2022/01/13 10:27:33;;;;;;;46.93;21.40;;;;;;;;;;5005143;28;20474;-82
2022/01/13 10:30:00;;;;;;;52.13;23.00;;;;;;;;;;5001841;28;20454;-82
2022/01/13 10:32:28;;;;;;;43.03;20.87;;;;;;;;;;5003423;28;21064;-82
2022/01/13 10:34:58;;;;;;;51.93;22.63;;;;;;;;;;5005234;28;20461;-82
2022/01/13 10:37:30;;;;;;;50.13;23.40;;;;;;;;;;5004879;28;20490;-82
2022/01/13 10:39:58;;;;;;;48.30;21.80;;;;;;;;;;5005628;28;20462;-82
2022/01/13 10:43:11;;;;;;;51.63;20.93;;;;;;;;;;5001917;28;20482;-82
2022/01/13 10:45:39;;;;;;;66.73;22.97;;;;;;;;;;5005514;28;20536;-80
2022/01/13 10:48:06;;;;;;;45.83;20.90;;;;;;;;;;5005085;28;20496;-82
2022/01/13 10:50:35;;;;;;;53.33;22.20;;;;;;;;;;5004540;28;20477;-82
2022/01/13 10:53:03;;;;;;;56.00;22.17;;;;;;;;;;5007095;28;20486;-82
2022/01/13 10:55:30;;;;;;;47.50;21.23;;;;;;;;;;5003791;28;20611;-81
2022/01/13 10:57:57;;;;;;;53.93;22.10;;;;;;;;;;5005304;28;20494;-82
2022/01/13 11:00:24;;;;;;;48.23;19.67;;;;;;;;;;5006473;28;20886;-81
2022/01/13 11:02:59;;;;;;;55.93;21.37;;;;;;;;;;5005411;28;20446;-82
2022/01/13 11:05:25;;;;;;;52.87;21.33;;;;;;;;;;5004946;28;20478;-82
2022/01/13 11:07:53;;;;;;;45.83;20.20;;;;;;;;;;5004103;28;21390;-82
2022/01/13 11:10:20;;;;;;;55.70;21.27;;;;;;;;;;5002729;28;20466;-82
2022/01/13 11:12:55;;;;;;;45.27;21.10;;;;;;;;;;5001643;28;20468;-81
2022/01/13 11:15:21;;;;;;;54.03;22.43;;;;;;;;;;5005360;28;20480;-82
2022/01/13 11:17:49;;;;;;;62.37;22.23;;;;;;;;;;5003892;28;20891;-82
2022/01/13 11:20:17;;;;;;;54.83;24.33;;;;;;;;;;5002496;28;20461;-80
2022/01/13 11:22:44;;;;;;;52.73;25.50;;;;;;;;;;5003478;28;20469;-81
2022/01/13 11:25:13;;;;;;;56.27;24.23;;;;;;;;;;5001817;28;20457;-82
2022/01/13 11:27:40;;;;;;;64.87;26.67;;;;;;;;;;5003840;28;20552;-80
2022/01/13 11:30:08;;;;;;;50.83;21.13;;;;;;;;;;5002793;28;20464;-82
2022/01/13 11:32:34;;;;;;;49.60;22.27;;;;;;;;;;5003833;28;20524;-82
2022/01/13 11:35:01;;;;;;;40.77;22.03;;;;;;;;;;5004475;28;20858;-82
2022/01/13 11:37:28;;;;;;;59.63;22.70;;;;;;;;;;5003486;28;20486;-82
2022/01/13 11:39:54;;;;;;;46.90;20.87;;;;;;;;;;5004747;28;20522;-81
2022/01/13 11:42:22;;;;;;;55.03;22.93;;;;;;;;;;5001520;28;20489;-81
2022/01/13 11:45:10;;;;;;;46.70;20.93;;;;;;;;;;5002805;28;20446;-81
2022/01/13 11:47:36;;;;;;;58.20;22.30;;;;;;;;;;5003158;28;20477;-81
2022/01/13 11:50:09;;;;;;;58.63;23.10;;;;;;;;;;5002470;28;20462;-81
2022/01/13 11:52:42;;;;;;;48.63;22.63;;;;;;;;;;5002706;28;20454;-81
2022/01/13 11:55:22;;;;;;;49.93;22.67;;;;;;;;;;5001957;28;20455;-81
2022/01/13 11:57:50;;;;;;;62.40;24.07;;;;;;;;;;5002149;28;20508;-81
2022/01/13 12:00:23;;;;;;;46.10;22.30;;;;;;;;;;5000382;28;20543;-81
2022/01/13 12:02:50;;;;;;;61.93;24.40;;;;;;;;;;5004301;28;20461;-82
2022/01/13 12:05:18;;;;;;;62.63;22.77;;;;;;;;;;5003184;28;20454;-81
2022/01/13 12:07:45;;;;;;;52.27;22.53;;;;;;;;;;5005801;28;20581;-81
2022/01/13 12:10:33;;;;;;;52.07;23.80;;;;;;;;;;5003620;28;20454;-82
2022/01/13 12:13:01;;;;;;;52.03;22.70;;;;;;;;;;5004338;28;20466;-81
2022/01/13 12:15:28;;;;;;;51.23;22.40;;;;;;;;;;5003366;28;20977;-81
2022/01/13 12:17:58;;;;;;;56.50;24.87;;;;;;;;;;5005369;28;20490;-81
2022/01/13 12:20:26;;;;;;;50.90;25.83;;;;;;;;;;5003035;28;20550;-81
2022/01/13 12:23:02;;;;;;;57.73;22.50;;;;;;;;;;5003573;28;20458;-81
2022/01/13 12:25:32;;;;;;;52.47;23.67;;;;;;;;;;5004251;28;20899;-82
2022/01/13 12:27:59;;;;;;;60.30;22.73;;;;;;;;;;5003164;28;20475;-81
2022/01/13 12:30:28;;;;;;;55.00;23.00;;;;;;;;;;5004487;28;20489;-81
2022/01/13 12:32:55;;;;;;;42.83;20.60;;;;;;;;;;5004390;28;20449;-81
2022/01/13 12:35:40;;;;;;;47.57;22.73;;;;;;;;;;5004134;28;22562;-81
2022/01/13 12:38:07;;;;;;;57.17;23.00;;;;;;;;;;5004477;28;20945;-81
2022/01/13 12:40:39;;;;;;;49.70;21.60;;;;;;;;;;5003856;28;20480;-81
2022/01/13 12:43:22;;;;;;;53.23;22.83;;;;;;;;;;5003480;28;20481;-81
2022/01/13 12:45:50;;;;;;;47.20;23.87;;;;;;;;;;5003970;28;20481;-81
2022/01/13 12:48:16;;;;;;;48.60;20.93;;;;;;;;;;5002860;28;20439;-81
2022/01/13 12:50:44;;;;;;;52.37;21.73;;;;;;;;;;5002208;28;20536;-78
2022/01/13 12:53:12;;;;;;;48.37;22.67;;;;;;;;;;5003678;28;20465;-81
2022/01/13 12:55:40;;;;;;;48.63;23.00;;;;;;;;;;5000932;28;20475;-81
2022/01/13 12:58:08;;;;;;;50.13;22.00;;;;;;;;;;5003910;28;20494;-81
2022/01/13 13:00:34;;;;;;;49.87;21.70;;;;;;;;;;5004442;28;20484;-81
2022/01/13 13:03:06;;;;;;;46.17;21.90;;;;;;;;;;5002247;28;20466;-82
2022/01/13 13:05:34;;;;;;;46.00;20.73;;;;;;;;;;4999072;28;20539;-82
2022/01/13 13:08:01;;;;;;;46.30;19.67;;;;;;;;;;5004263;28;20458;-81
2022/01/13 13:10:28;;;;;;;41.13;21.40;;;;;;;;;;5003855;28;20471;-81
2022/01/13 13:12:54;;;;;;;44.13;21.27;;;;;;;;;;5004861;28;20461;-82
2022/01/13 13:15:40;;;;;;;46.97;21.53;;;;;;;;;;5004192;28;20528;-81
2022/01/13 13:18:08;;;;;;;38.07;18.87;;;;;;;;;;5005974;28;21052;-81
2022/01/13 13:20:35;;;;;;;44.10;19.30;;;;;;;;;;5005016;28;20470;-81
2022/01/13 13:23:03;;;;;;;49.13;23.27;;;;;;;;;;5005547;28;20461;-81
2022/01/13 13:25:30;;;;;;;42.13;20.40;;;;;;;;;;5005405;28;20474;-81
2022/01/13 13:27:57;;;;;;;41.43;22.00;;;;;;;;;;5006934;28;20596;-81
2022/01/13 13:30:23;;;;;;;40.00;19.60;;;;;;;;;;5008010;28;20885;-82
2022/01/13 13:32:50;;;;;;;39.63;20.80;;;;;;;;;;5007710;28;20447;-82
2022/01/13 13:35:18;;;;;;;58.20;21.80;;;;;;;;;;5006469;28;20557;-80
2022/01/13 13:37:45;;;;;;;43.63;20.97;;;;;;;;;;5006530;28;20491;-81
2022/01/13 13:40:20;;;;;;;42.77;19.90;;;;;;;;;;5005077;28;20477;-81
2022/01/13 13:42:58;;;;;;;55.23;22.80;;;;;;;;;;5005223;28;20465;-81
2022/01/13 13:45:24;;;;;;;44.07;22.00;;;;;;;;;;5006030;28;20478;-81
2022/01/13 13:47:54;;;;;;;55.60;23.00;;;;;;;;;;5005983;28;20489;-82
2022/01/13 13:50:21;;;;;;;41.67;22.47;;;;;;;;;;5001850;28;20516;-81
2022/01/13 13:52:48;;;;;;;52.57;21.77;;;;;;;;;;5005913;28;20465;-81
2022/01/13 13:55:14;;;;;;;46.10;21.93;;;;;;;;;;5001837;28;20823;-80
2022/01/13 13:57:41;;;;;;;43.37;21.30;;;;;;;;;;5006414;28;20486;-80
2022/01/13 14:00:09;;;;;;;44.87;19.77;;;;;;;;;;5007258;28;20494;-81
2022/01/13 14:02:37;;;;;;;48.00;22.00;;;;;;;;;;5009132;28;20461;-81
2022/01/13 14:05:04;;;;;;;40.77;19.77;;;;;;;;;;5007158;28;20457;-81
2022/01/13 14:07:33;;;;;;;41.07;21.37;;;;;;;;;;5004460;28;20486;-82
2022/01/13 14:10:02;;;;;;;52.00;22.60;;;;;;;;;;5004788;28;20878;-81
2022/01/13 14:12:29;;;;;;;42.90;20.57;;;;;;;;;;5025985;28;20481;-81
2022/01/13 14:14:55;;;;;;;46.30;21.10;;;;;;;;;;5027874;28;20493;-81
2022/01/13 14:17:29;;;;;;;43.83;20.93;;;;;;;;;;5004710;28;20474;-80
2022/01/13 14:20:02;;;;;;;62.90;23.63;;;;;;;;;;5006250;28;20446;-82
2022/01/13 14:22:28;;;;;;;51.90;22.93;;;;;;;;;;5007653;28;20463;-81
2022/01/13 14:24:57;;;;;;;42.40;22.03;;;;;;;;;;5005047;28;20463;-81